Nearby METAR Reports

 

KBJC - Broomfield/Jeffc, Colorado, USA
Distance from station: NNW 11mi, 17km
Updated: 12/17/2017 1:47pm
Mostly cloudy
Mostly cloudy
 Wind from SE
Wind: SE 5 mph , 7 km/h
Temperature: 37°F , 3°C
Wind Chill: 33°F , 1°C
Dew Point: 27°F , -3°C
Humidity: 65%
Barometer: 29.88 inHg , 1011.9 hPa
Clouds: Mostly cloudy
Visibility: 10 miles , 16 km
Cloud details: Few Clouds 2000 ft
Few Clouds 9000 ft
Mostly cloudy 15000 ft
2017/12/17 20:47 KBJC 172047Z 14004KT 10SM FEW020 FEW090 BKN150 03/M03 A2988
KBKF - Buckley Angb/Den, Colorado, USA
Distance from station: E 16mi, 25km
Updated: 12/17/2017 1:58pm
Mostly cloudy
Mostly cloudy
 Wind from calm
Wind: Calm
Temperature: 39°F , 4°C
Dew Point: 23°F , -5°C
Humidity: 52%
Barometer: 29.87 inHg , 1011.5 hPa
Clouds: Mostly cloudy
Visibility: 10 miles , 16 km
Cloud details: Few Clouds 2500 ft
Partly cloudy 13000 ft
Mostly cloudy 22000 ft
2017/12/17 20:58 KBKF 172058Z 00000KT 10SM FEW025 SCT130 BKN220 04/M05 A2987 RMK AO2A SLP118 T00361051 57034
 
KAPA - Denver/Arapahoe, Colorado, USA
Distance from station: SE 16mi, 26km
Updated: 12/17/2017 1:53pm
Mostly cloudy
Mostly cloudy
 Wind from SSE
Wind: SSE 8 mph , 13 km/h
Temperature: 37°F , 3°C
Wind Chill: 31°F , -1°C
Dew Point: 23°F , -5°C
Humidity: 56%
Barometer: 29.86 inHg , 1011.2 hPa
Clouds: Mostly cloudy
Visibility: 10 miles , 16 km
Cloud details: Few Clouds 2000 ft
Mostly cloudy 12000 ft
Mostly cloudy 16000 ft
2017/12/17 20:53 KAPA 172053Z 15007KT 10SM FEW020 BKN120 BKN160 03/M05 A2986 RMK AO2 SLP132 T00281050 56034
KEIK - Erie Muni, Colorado, USA
Distance from station: N 18mi, 29km
Updated: 12/17/2017 1:53pm
Clear
Clear
 Wind from calm
Wind: Calm
Temperature: 39°F , 4°C
Dew Point: 25°F , -4°C
Humidity: 56%
Barometer: 29.94 inHg , 1013.9 hPa
Clouds: Clear
Visibility: 10 miles , 16 km
2017/12/17 20:53 KEIK 172053Z AUTO 00000KT 10SM CLR 04/M04 A2994 RMK AO2 T00351037
 
KBDU - Boulder Muni, Colorado, USA
Distance from station: NNW 22mi, 35km
Updated: 12/17/2017 1:54pm
Clear
Clear
 Wind from ENE
Wind: ENE 5 mph , 7 km/h
Temperature: 39°F , 4°C
Wind Chill: 35°F , 2°C
Dew Point: 27°F , -3°C
Humidity: 61%
Barometer: 29.87 inHg , 1011.5 hPa
Clouds: Clear
Visibility: 10 miles , 16 km
2017/12/17 20:54 KBDU 172054Z AUTO 06004KT 10SM CLR 04/M03 A2987 RMK AO2
KDEN - Denver (dia), Colorado, USA
Distance from station: ENE 22mi, 35km
Updated: 12/17/2017 1:53pm
Mostly cloudy
Mostly cloudy
 Wind from calm
Wind: Calm
Temperature: 37°F , 3°C
Dew Point: 23°F , -5°C
Humidity: 56%
Barometer: 29.88 inHg , 1011.9 hPa
Clouds: Mostly cloudy
Visibility: 10 miles , 16 km
Cloud details: Few Clouds 2000 ft
Few Clouds 11000 ft
Partly cloudy 15000 ft
Mostly cloudy 22000 ft
2017/12/17 20:53 KDEN 172053Z 00000KT 10SM FEW020 FEW110 SCT150 BKN220 03/M05 A2988 RMK AO2 SLP120 T00331050 56032 $
 
KFTG - Denver F. Range, Colorado, USA
Distance from station: E 26mi, 42km
Updated: 12/17/2017 12:58pm
NOT Current
Mostly cloudy
Mostly cloudy
 Wind from E
Wind: E 8 mph , 13 km/h
Temperature: 39°F , 4°C
Wind Chill: 33°F , 1°C
Dew Point: 27°F , -3°C
Humidity: 61%
Barometer: 29.90 inHg , 1012.5 hPa
Clouds: Mostly cloudy
Visibility: 10 miles , 16 km
Cloud details: Few Clouds 2000 ft
Mostly cloudy 22000 ft
2017/12/17 19:58 KFTG 171958Z 10007KT 10SM FEW020 BKN220 04/M03 A2990
KLMO - Longmont/Vbrand, Colorado, USA
Distance from station: NNW 29mi, 47km
Updated: 12/17/2017 1:55pm
Clear
Clear
 Wind from NE
Wind: NE 6 mph , 9 km/h
Temperature: 41°F , 5°C
Wind Chill: 37°F , 3°C
Dew Point: 28°F , -2°C
Humidity: 61%
Barometer: 29.90 inHg , 1012.5 hPa
Clouds: Clear
Visibility: 10 miles , 16 km
2017/12/17 20:55 KLMO 172055Z AUTO 05005KT 10SM CLR 05/M02 A2990 RMK AO2 T00541025
 
K0CO - Berthoud Pass, Colorado, USA
Distance from station: W 39mi, 62km
Updated: 12/17/2017 1:54pm
Clear
Clear
 Wind from WNW
Wind: WNW 32 mph , 52 km/h, Gust: 44 mph , 70 km/h
Temperature: 16°F , -9°C
Wind Chill: -5°F , -21°C
Dew Point: 3°F , -16°C
Humidity: 57%
Barometer: 29.90 inHg , 1012.5 hPa
Clouds: Clear
Visibility: 10 miles , 16 km
2017/12/17 20:54 K0CO 172054Z AUTO 30028G38KT 10SM CLR M09/M16 A2990 RMK AO2
KMNH - Monument/Elbert, Colorado, USA
Distance from station: SSE 43mi, 68km
Updated: 12/17/2017 1:54pm
Clear
Clear
 Wind from SSE
Wind: SSE 9 mph , 15 km/h
Temperature: 34°F , 1°C
Wind Chill: 27°F , -3°C
Dew Point: 21°F , -6°C
Humidity: 60%
Barometer: 29.88 inHg , 1011.9 hPa
Clouds: Clear
Visibility: 10 miles , 16 km
2017/12/17 20:54 KMNH 172054Z AUTO 15008KT 10SM CLR 01/M06 A2988 RMK AO2
 
KFNL - Ft Collins/Lovel, Colorado, USA
Distance from station: N 48mi, 78km
Updated: 12/17/2017 2:12pm
Partly cloudy
Partly cloudy
 Wind from WSW
Wind: WSW 3 mph , 6 km/h
Temperature: 36°F , 2°C
Dew Point: 27°F , -3°C
Humidity: 70%
Barometer: 29.90 inHg , 1012.5 hPa
Clouds: Partly cloudy
Visibility: 10 miles , 16 km
Cloud details: Partly cloudy 2100 ft
2017/12/17 21:12 KFNL 172112Z AUTO 25003KT 10SM SCT021 02/M03 A2990 RMK AO2 FZRANO